createdAt,value
2018-10-12T00:01:13.368Z,12.90
2018-10-12T00:06:17.307Z,14.17
2018-10-12T00:11:21.878Z,14.13
2018-10-12T00:16:25.920Z,13.10
2018-10-12T00:21:30.484Z,13.10
2018-10-12T00:26:34.352Z,13.00
2018-10-12T00:31:37.972Z,11.70
2018-10-12T00:36:44.567Z,12.00
2018-10-12T00:41:48.156Z,14.87
2018-10-12T00:46:51.951Z,13.00
2018-10-12T00:51:55.642Z,14.33
2018-10-12T00:56:59.243Z,16.40
2018-10-12T01:02:03.368Z,13.43
2018-10-12T01:07:06.983Z,12.80
2018-10-12T01:12:37.487Z,13.47
2018-10-12T01:17:41.253Z,11.83
2018-10-12T01:22:44.928Z,13.37
2018-10-12T01:27:48.667Z,12.30
2018-10-12T01:32:58.610Z,12.30
2018-10-12T01:38:03.262Z,12.80
2018-10-12T01:43:07.228Z,12.10
2018-10-12T01:48:11.407Z,12.73
2018-10-12T01:53:15.074Z,12.57
2018-10-12T01:58:18.885Z,14.10
2018-10-12T02:03:22.602Z,12.93
2018-10-12T02:08:26.360Z,13.37
2018-10-12T02:13:30.003Z,12.03
2018-10-12T02:18:36.931Z,12.87
2018-10-12T02:23:40.897Z,12.40
2018-10-12T02:28:44.919Z,13.80
2018-10-12T02:33:49.435Z,14.70
2018-10-12T02:38:53.096Z,12.50
2018-10-12T02:43:56.705Z,13.17
2018-10-12T02:49:00.304Z,12.63
2018-10-12T02:54:04.160Z,12.27
2018-10-12T02:59:08.077Z,13.07
2018-10-12T03:04:11.934Z,12.27
2018-10-12T03:09:15.615Z,13.50
2018-10-12T03:14:21.380Z,12.47
2018-10-12T03:19:25.020Z,12.47
2018-10-12T03:24:28.869Z,13.33
2018-10-12T03:29:33.199Z,13.27
2018-10-12T03:34:36.937Z,12.20
2018-10-12T03:39:40.609Z,11.60
2018-10-12T03:44:44.277Z,12.07
2018-10-12T03:49:48.008Z,13.53
2018-10-12T03:54:52.135Z,15.67
2018-10-12T03:59:56.058Z,13.70
2018-10-12T04:05:00.000Z,13.63
2018-10-12T04:10:03.681Z,14.00
2018-10-12T04:15:07.681Z,14.43
2018-10-12T04:20:12.412Z,15.00
2018-10-12T04:25:16.257Z,14.50
2018-10-12T04:30:19.898Z,15.80
2018-10-12T04:35:24.091Z,15.60
2018-10-12T04:41:15.950Z,13.87
2018-10-12T04:46:24.628Z,14.13
2018-10-12T04:51:35.282Z,14.70
2018-10-12T04:56:39.155Z,14.20
2018-10-12T05:01:42.856Z,13.73
2018-10-12T05:06:46.759Z,15.20
2018-10-12T05:11:51.232Z,14.50
2018-10-12T05:16:57.196Z,14.60
2018-10-12T05:22:01.270Z,14.93
2018-10-12T05:27:05.045Z,14.03
2018-10-12T05:32:08.915Z,14.50
2018-10-12T05:37:12.823Z,15.17
2018-10-12T05:42:16.796Z,15.73
2018-10-12T05:47:20.661Z,13.60
2018-10-12T05:52:24.368Z,15.23
2018-10-12T05:57:28.485Z,16.27
2018-10-12T06:02:32.151Z,19.27
2018-10-12T06:07:36.059Z,15.50
2018-10-12T06:12:39.782Z,16.23
2018-10-12T06:17:43.400Z,15.13
2018-10-12T06:22:47.140Z,16.60
2018-10-12T06:27:50.911Z,18.70
2018-10-12T06:32:54.573Z,14.60
2018-10-12T06:37:59.008Z,16.70
2018-10-12T06:43:02.899Z,21.70
2018-10-12T06:48:07.269Z,19.60
2018-10-12T06:53:11.166Z,21.37
2018-10-12T06:58:15.229Z,21.53
2018-10-12T07:03:19.023Z,25.17
2018-10-12T07:08:24.595Z,26.33
2018-10-12T07:13:28.250Z,24.50
2018-10-12T07:18:31.920Z,25.33
2018-10-12T07:23:35.948Z,27.30
2018-10-12T07:28:39.680Z,26.10
2018-10-12T07:33:43.654Z,26.80
2018-10-12T07:38:47.817Z,28.97
2018-10-12T07:43:51.463Z,30.03
2018-10-12T07:48:55.057Z,30.70
2018-10-12T07:53:58.655Z,29.30
2018-10-12T07:59:02.543Z,26.27
2018-10-12T08:04:06.420Z,24.30
2018-10-12T08:09:10.268Z,25.60
2018-10-12T08:14:14.723Z,27.17
2018-10-12T08:19:18.476Z,26.60
2018-10-12T08:24:22.626Z,26.50
2018-10-12T08:29:27.507Z,25.60
2018-10-12T08:34:31.201Z,25.00
2018-10-12T08:39:34.819Z,28.97
2018-10-12T08:44:38.720Z,24.43
2018-10-12T08:49:42.600Z,22.60
2018-10-12T08:54:46.297Z,21.27
2018-10-12T08:59:50.804Z,21.77
2018-10-12T09:04:54.564Z,19.47
2018-10-12T09:09:58.668Z,18.10
2018-10-12T09:15:02.253Z,17.87
2018-10-12T09:20:06.324Z,17.97
2018-10-12T09:25:10.235Z,17.37
2018-10-12T09:30:13.928Z,17.37
2018-10-12T09:35:17.489Z,17.97
2018-10-12T09:40:21.228Z,17.97
2018-10-12T09:45:24.864Z,16.23
2018-10-12T09:50:29.019Z,17.10
2018-10-12T09:55:32.636Z,16.90
2018-10-12T10:00:42.956Z,17.63
2018-10-12T10:05:47.019Z,15.73
2018-10-12T10:10:50.865Z,13.90
2018-10-12T10:15:54.502Z,13.80
2018-10-12T10:20:58.397Z,12.87
2018-10-12T10:26:02.200Z,14.10
2018-10-12T10:31:06.198Z,12.90
2018-10-12T10:36:09.852Z,12.87
2018-10-12T10:41:14.119Z,13.63
2018-10-12T10:46:17.817Z,14.70
2018-10-12T10:51:21.383Z,11.63
2018-10-12T10:56:25.207Z,12.90
2018-10-12T11:01:28.821Z,11.37
2018-10-12T11:06:32.658Z,11.23
2018-10-12T11:11:37.195Z,10.80
2018-10-12T11:16:40.867Z,10.80
2018-10-12T11:21:45.109Z,9.73
2018-10-12T11:26:48.797Z,10.10
2018-10-12T11:31:52.564Z,10.10
2018-10-12T11:36:57.204Z,10.20
2018-10-12T11:42:00.821Z,9.70
2018-10-12T11:47:04.443Z,8.80
2018-10-12T11:52:07.842Z,9.00
2018-10-12T11:57:11.404Z,8.47
2018-10-12T12:02:15.198Z,7.27
2018-10-12T12:07:18.896Z,6.70
2018-10-12T12:12:23.394Z,7.47
2018-10-12T12:17:27.283Z,7.40
2018-10-12T12:22:31.471Z,6.97
2018-10-12T12:27:35.452Z,6.37
2018-10-12T12:32:39.271Z,5.83
2018-10-12T12:37:42.567Z,6.60
2018-10-12T12:42:46.392Z,6.53
2018-10-12T12:47:49.764Z,6.50
2018-10-12T12:52:52.967Z,6.80
2018-10-12T12:57:56.240Z,6.80
2018-10-12T13:02:59.838Z,6.90
2018-10-12T13:08:03.097Z,7.30
2018-10-12T13:13:06.739Z,7.37
2018-10-12T13:18:10.760Z,7.07
2018-10-12T13:23:14.653Z,7.97
2018-10-12T13:28:18.378Z,7.40
2018-10-12T13:33:21.876Z,6.63
2018-10-12T13:38:25.491Z,8.20
2018-10-12T13:43:29.112Z,7.50
2018-10-12T13:48:32.992Z,7.30
2018-10-12T13:53:36.650Z,6.77
2018-10-12T13:58:40.988Z,6.40
2018-10-12T14:03:44.272Z,6.57
2018-10-12T14:08:48.292Z,7.77
2018-10-12T14:13:52.091Z,7.40
2018-10-12T14:18:55.616Z,6.27
2018-10-12T14:23:59.072Z,6.63
2018-10-12T14:29:04.283Z,7.57
2018-10-12T14:34:17.301Z,7.43
2018-10-12T14:39:21.397Z,5.60
2018-10-12T14:44:25.008Z,5.43
2018-10-12T14:49:30.030Z,5.53
2018-10-12T14:54:34.430Z,5.77
2018-10-12T14:59:38.268Z,5.50
2018-10-12T15:04:42.131Z,5.40
2018-10-12T15:09:46.164Z,5.40
2018-10-12T15:14:55.483Z,6.00
2018-10-12T15:19:59.844Z,5.90
2018-10-12T15:25:04.501Z,4.90
2018-10-12T15:30:08.705Z,4.80
2018-10-12T15:35:12.718Z,5.67
2018-10-12T15:40:16.542Z,5.53
2018-10-12T15:45:20.907Z,5.20
2018-10-12T15:50:24.347Z,4.83
2018-10-12T15:55:28.292Z,5.30
2018-10-12T16:00:32.710Z,5.10
2018-10-12T16:05:37.322Z,5.00
2018-10-12T16:10:42.072Z,5.17
2018-10-12T16:15:45.547Z,5.00
2018-10-12T16:20:49.237Z,4.90
2018-10-12T16:26:04.507Z,5.40
2018-10-12T16:31:08.228Z,5.70
2018-10-12T16:36:11.906Z,5.63
2018-10-12T16:41:15.679Z,6.23
2018-10-12T16:46:19.659Z,6.03
2018-10-12T16:51:22.992Z,5.87
2018-10-12T16:56:27.044Z,6.00
2018-10-12T17:01:30.681Z,6.10
2018-10-12T17:06:34.545Z,6.50
2018-10-12T17:11:38.507Z,7.47
2018-10-12T17:16:42.967Z,8.10
2018-10-12T17:21:46.238Z,6.90
2018-10-12T17:26:49.860Z,7.00
2018-10-12T17:31:53.647Z,7.00
2018-10-12T17:36:57.075Z,8.50
2018-10-12T17:42:12.631Z,10.13
2018-10-12T17:47:16.542Z,10.57
2018-10-12T17:52:20.034Z,25.80
2018-10-12T17:57:25.531Z,14.00
2018-10-12T18:02:29.550Z,12.70
2018-10-12T18:07:32.845Z,6.90
2018-10-12T18:12:37.231Z,6.83
2018-10-12T18:17:41.119Z,8.00
2018-10-12T18:22:44.889Z,6.97
2018-10-12T18:27:48.965Z,6.20
2018-10-12T18:32:52.584Z,6.70
2018-10-12T18:37:56.211Z,6.60
2018-10-12T18:43:00.870Z,7.30
2018-10-12T18:48:04.273Z,7.83
2018-10-12T18:53:07.877Z,7.50
2018-10-12T18:58:11.218Z,7.53
2018-10-12T19:03:14.589Z,6.70
2018-10-12T19:08:17.886Z,6.83
2018-10-12T19:13:21.511Z,6.67
2018-10-12T19:18:25.155Z,6.50
2018-10-12T19:23:28.900Z,6.17
2018-10-12T19:28:33.176Z,10.27
2018-10-12T19:33:37.715Z,6.80
2018-10-12T19:38:41.521Z,6.43
2018-10-12T19:43:45.648Z,7.33
2018-10-12T19:48:49.354Z,6.10
2018-10-12T19:53:53.033Z,6.03
2018-10-12T19:58:56.684Z,7.00
2018-10-12T20:04:00.009Z,7.23
2018-10-12T20:09:05.194Z,7.23
2018-10-12T20:14:10.239Z,7.57
2018-10-12T20:19:13.868Z,6.80
2018-10-12T20:24:17.447Z,10.20
2018-10-12T20:29:20.691Z,8.00
2018-10-12T20:34:24.553Z,8.10
2018-10-12T20:39:28.680Z,10.50
2018-10-12T20:44:32.576Z,7.73
2018-10-12T20:49:35.905Z,7.23
2018-10-12T20:54:39.227Z,10.43
2018-10-12T20:59:42.694Z,6.13
2018-10-12T21:04:47.124Z,7.70
2018-10-12T21:09:50.929Z,7.63
2018-10-12T21:14:54.266Z,6.70
2018-10-12T21:19:57.915Z,6.80
2018-10-12T21:25:01.496Z,6.60
2018-10-12T21:30:05.238Z,6.70
2018-10-12T21:35:09.860Z,6.37
2018-10-12T21:40:13.516Z,6.57
2018-10-12T21:45:17.079Z,6.73
2018-10-12T21:50:20.988Z,7.80
2018-10-12T21:55:24.651Z,8.10
2018-10-12T22:00:29.204Z,7.80
2018-10-12T22:05:32.560Z,7.90
2018-10-12T22:10:36.667Z,7.20
2018-10-12T22:15:39.957Z,6.70
2018-10-12T22:20:43.574Z,6.93
2018-10-12T22:25:47.293Z,6.70
2018-10-12T22:30:50.839Z,8.27
2018-10-12T22:35:54.316Z,6.30
2018-10-12T22:40:57.945Z,6.00
2018-10-12T22:46:01.637Z,6.00
2018-10-12T22:51:05.510Z,6.50
2018-10-12T22:56:09.492Z,6.00
2018-10-12T23:01:13.106Z,6.20
2018-10-12T23:06:19.322Z,6.33
2018-10-12T23:11:22.982Z,6.03
2018-10-12T23:16:27.022Z,5.63
2018-10-12T23:21:31.333Z,6.30
2018-10-12T23:26:36.841Z,6.30
2018-10-12T23:31:41.470Z,5.70
2018-10-12T23:36:45.076Z,5.63
2018-10-12T23:41:49.111Z,6.00
2018-10-12T23:46:52.796Z,5.23
2018-10-12T23:51:59.729Z,5.93
2018-10-12T23:57:03.350Z,5.80
